Time;durP1;ratioP1;P1;durP2;ratioP2;P2;SDS_P1;SDS_P2;PMS_P1;PMS_P2;Temp;Humidity;BMP_temperature;BMP_pressure;BME280_temperature;BME280_humidity;BME280_pressure;Samples;Min_cycle;Max_cycle;Signal;HPM_P1;HPM_P2
2021/07/07 00:01:34;;;;;;;35.40;31.70;;;18.70;99.90;;;;;;4914083;29;20258;-86
2021/07/07 00:04:07;;;;;;;36.80;33.17;;;18.80;99.90;;;;;;4926221;29;20384;-83
2021/07/07 00:06:36;;;;;;;36.80;33.10;;;18.70;99.90;;;;;;4920169;29;20246;-85
2021/07/07 00:09:05;;;;;;;37.90;33.80;;;18.60;99.90;;;;;;4918960;29;20202;-86
2021/07/07 00:11:34;;;;;;;37.83;33.27;;;18.60;99.90;;;;;;4908485;29;20199;-84
2021/07/07 00:14:06;;;;;;;41.60;37.20;;;18.60;99.90;;;;;;4905626;29;20346;-85
2021/07/07 00:16:34;;;;;;;42.33;35.20;;;18.60;99.90;;;;;;4908379;29;20221;-84
2021/07/07 00:19:04;;;;;;;38.80;34.70;;;18.60;99.90;;;;;;4910767;29;20354;-84
2021/07/07 00:21:33;;;;;;;40.57;36.27;;;18.60;99.90;;;;;;4905950;29;20298;-86
2021/07/07 00:24:02;;;;;;;38.83;34.77;;;18.60;99.90;;;;;;4907684;29;20207;-84
2021/07/07 00:26:32;;;;;;;38.73;34.70;;;18.60;99.90;;;;;;4906621;29;20383;-85
2021/07/07 00:29:01;;;;;;;39.57;35.53;;;18.60;99.90;;;;;;4906855;29;20281;-84
2021/07/07 00:31:34;;;;;;;40.07;35.90;;;18.50;99.90;;;;;;4909242;29;20742;-85
2021/07/07 00:34:03;;;;;;;42.90;38.47;;;18.50;99.90;;;;;;4908392;29;20207;-84
2021/07/07 00:36:32;;;;;;;40.27;36.03;;;18.50;99.90;;;;;;4908968;29;20202;-85
2021/07/07 00:39:01;;;;;;;42.23;37.90;;;18.40;99.90;;;;;;4914522;28;20270;-84
2021/07/07 00:41:30;;;;;;;44.33;38.47;;;18.40;99.90;;;;;;4911560;29;20202;-85
2021/07/07 00:44:00;;;;;;;42.73;38.03;;;18.40;99.90;;;;;;4909936;29;20194;-85
2021/07/07 00:46:28;;;;;;;44.03;39.33;;;18.40;99.90;;;;;;4909309;29;20699;-85
2021/07/07 00:48:59;;;;;;;43.63;39.03;;;18.40;99.90;;;;;;4917572;29;20203;-85
2021/07/07 00:51:28;;;;;;;43.23;38.57;;;18.30;99.90;;;;;;4905858;29;20198;-86
2021/07/07 00:53:58;;;;;;;43.03;38.43;;;18.30;99.90;;;;;;4910603;29;20533;-86
2021/07/07 00:56:28;;;;;;;40.03;35.70;;;18.30;99.90;;;;;;4919751;29;20231;-86
2021/07/07 00:59:01;;;;;;;43.33;38.57;;;18.30;99.90;;;;;;4925042;28;20203;-85
2021/07/07 01:01:30;;;;;;;44.20;39.50;;;18.30;99.90;;;;;;4906615;29;20195;-85
2021/07/07 01:04:01;;;;;;;43.60;39.00;;;18.30;99.90;;;;;;4904107;29;20895;-85
2021/07/07 01:06:29;;;;;;;43.80;38.33;;;18.30;99.90;;;;;;4907761;29;20223;-84
2021/07/07 01:08:58;;;;;;;42.93;38.37;;;18.20;99.90;;;;;;4904842;29;20274;-85
2021/07/07 01:11:27;;;;;;;45.40;40.47;;;18.20;99.90;;;;;;4907857;29;20222;-85
2021/07/07 01:13:56;;;;;;;49.17;42.60;;;18.20;99.90;;;;;;4925440;28;20416;-85
2021/07/07 01:16:28;;;;;;;48.37;43.20;;;18.10;99.90;;;;;;4929053;28;20211;-84
2021/07/07 01:18:57;;;;;;;52.07;45.73;;;18.10;99.90;;;;;;4928370;28;20187;-85
2021/07/07 01:21:28;;;;;;;49.77;44.40;;;18.10;99.90;;;;;;4927136;28;20207;-86
2021/07/07 01:23:58;;;;;;;50.27;44.60;;;18.10;99.90;;;;;;4922081;28;20215;-85
2021/07/07 01:26:27;;;;;;;52.53;46.40;;;18.10;99.90;;;;;;4919681;29;20214;-85
2021/07/07 01:28:56;;;;;;;52.97;47.17;;;18.10;99.90;;;;;;4908987;29;20286;-84
2021/07/07 01:31:25;;;;;;;51.90;45.50;;;18.10;99.90;;;;;;4916287;29;20210;-85
2021/07/07 01:33:53;;;;;;;52.87;45.47;;;18.10;99.90;;;;;;4911236;29;20219;-86
2021/07/07 01:36:22;;;;;;;54.03;47.23;;;18.00;99.90;;;;;;4927224;28;20207;-83
2021/07/07 01:38:51;;;;;;;56.43;47.30;;;18.00;99.90;;;;;;4922005;28;20202;-85
2021/07/07 01:41:23;;;;;;;57.93;47.00;;;18.00;99.90;;;;;;4922563;28;20697;-85
2021/07/07 01:43:54;;;;;;;50.53;44.27;;;18.00;99.90;;;;;;4915156;29;20199;-84
2021/07/07 01:46:23;;;;;;;50.03;43.77;;;18.00;99.90;;;;;;4920823;29;20239;-83
2021/07/07 01:48:52;;;;;;;48.40;43.10;;;18.00;99.90;;;;;;4921789;28;20355;-83
2021/07/07 01:51:21;;;;;;;48.13;43.00;;;18.00;99.90;;;;;;4918213;29;20207;-85
2021/07/07 01:53:50;;;;;;;49.70;44.17;;;17.90;99.90;;;;;;4915603;29;20203;-84
2021/07/07 01:56:19;;;;;;;49.00;43.70;;;17.90;99.90;;;;;;4922246;29;20203;-85
2021/07/07 01:58:49;;;;;;;51.23;45.00;;;17.80;99.90;;;;;;4922536;29;20203;-85
2021/07/07 02:01:18;;;;;;;50.43;44.77;;;17.80;99.90;;;;;;4923702;29;20210;-83
2021/07/07 02:03:46;;;;;;;48.23;43.10;;;17.80;99.90;;;;;;4924235;29;20207;-85
2021/07/07 02:06:15;;;;;;;46.97;41.87;;;17.80;99.90;;;;;;4928598;29;20242;-84
2021/07/07 02:08:44;;;;;;;48.07;42.93;;;17.80;99.90;;;;;;4925289;29;20191;-85
2021/07/07 02:11:13;;;;;;;48.63;43.40;;;17.70;99.90;;;;;;4916551;29;20229;-85
2021/07/07 02:13:42;;;;;;;47.27;42.03;;;17.80;99.90;;;;;;4919812;29;20251;-85
2021/07/07 02:16:12;;;;;;;44.77;40.00;;;17.80;99.90;;;;;;4916849;29;20240;-86
2021/07/07 02:18:40;;;;;;;50.70;41.50;;;17.70;99.90;;;;;;4917875;29;20278;-86
2021/07/07 02:21:09;;;;;;;47.70;42.47;;;17.70;99.90;;;;;;4925159;29;20234;-83
2021/07/07 02:23:40;;;;;;;45.70;40.90;;;17.70;99.90;;;;;;4915898;29;20247;-84
2021/07/07 02:26:09;;;;;;;47.73;42.37;;;17.60;99.90;;;;;;4923544;28;20214;-84
2021/07/07 02:28:39;;;;;;;48.83;43.63;;;17.60;99.90;;;;;;4928908;28;20214;-86
2021/07/07 02:31:07;;;;;;;45.97;40.97;;;17.60;99.90;;;;;;4934680;28;20195;-84
2021/07/07 02:33:38;;;;;;;46.50;41.67;;;17.70;99.90;;;;;;4927864;29;20211;-86
2021/07/07 02:36:09;;;;;;;44.73;39.77;;;17.60;99.90;;;;;;4923548;29;20222;-84
2021/07/07 02:38:37;;;;;;;46.23;41.33;;;17.60;99.90;;;;;;4918037;29;20203;-85
2021/07/07 02:41:07;;;;;;;47.60;42.70;;;17.60;99.90;;;;;;4921444;29;20207;-84
2021/07/07 02:43:36;;;;;;;46.10;41.27;;;17.70;99.90;;;;;;4925668;29;20642;-84
2021/07/07 02:46:05;;;;;;;46.80;41.73;;;17.70;99.90;;;;;;4919962;29;20330;-84
2021/07/07 02:48:34;;;;;;;47.83;42.87;;;17.70;99.90;;;;;;4909628;29;20204;-85
2021/07/07 02:51:04;;;;;;;50.23;44.83;;;17.70;99.90;;;;;;4909993;29;20417;-85
2021/07/07 02:53:33;;;;;;;47.67;42.53;;;17.80;99.90;;;;;;4909894;29;20202;-84
2021/07/07 02:56:02;;;;;;;44.83;40.10;;;17.80;99.90;;;;;;4911469;29;20202;-84
2021/07/07 02:58:30;;;;;;;48.13;43.03;;;17.80;99.90;;;;;;4909065;29;20610;-87
2021/07/07 03:00:59;;;;;;;46.33;41.50;;;17.80;99.90;;;;;;4911898;29;20717;-84
2021/07/07 03:03:29;;;;;;;45.93;41.10;;;17.90;99.90;;;;;;4913638;29;20653;-86
2021/07/07 03:06:01;;;;;;;48.73;42.97;;;17.90;99.90;;;;;;4912786;29;20538;-85
2021/07/07 03:08:32;;;;;;;46.10;41.30;;;18.00;99.90;;;;;;4919504;28;20386;-85
2021/07/07 03:11:02;;;;;;;43.97;39.23;;;18.00;99.90;;;;;;4928822;28;20211;-85
2021/07/07 03:13:31;;;;;;;47.60;42.50;;;18.00;99.90;;;;;;4908860;29;20298;-84
2021/07/07 03:15:59;;;;;;;44.93;40.03;;;18.10;99.90;;;;;;4908738;29;20214;-87
2021/07/07 03:18:28;;;;;;;43.17;38.67;;;18.20;99.90;;;;;;4910500;29;20207;-87
2021/07/07 03:20:57;;;;;;;43.53;38.97;;;18.20;99.90;;;;;;4930605;28;20201;-84
2021/07/07 03:23:27;;;;;;;44.20;39.57;;;18.30;99.90;;;;;;4917304;28;20203;-84
2021/07/07 03:25:58;;;;;;;44.57;38.43;;;18.30;99.90;;;;;;4921367;29;20310;-84
2021/07/07 03:28:26;;;;;;;43.03;38.63;;;18.40;99.90;;;;;;4914918;29;20215;-85
2021/07/07 03:30:55;;;;;;;42.17;37.97;;;18.50;99.90;;;;;;4910785;29;20722;-84
2021/07/07 03:33:25;;;;;;;42.13;37.87;;;18.50;99.90;;;;;;4913996;29;20214;-84
2021/07/07 03:35:53;;;;;;;42.20;37.87;;;18.60;99.90;;;;;;4914277;29;20214;-84
2021/07/07 03:38:24;;;;;;;40.70;36.60;;;18.70;99.90;;;;;;4920092;29;20206;-85
2021/07/07 03:40:53;;;;;;;38.57;34.50;;;18.70;99.90;;;;;;4917393;29;20265;-85
2021/07/07 03:43:23;;;;;;;41.53;37.07;;;18.80;99.90;;;;;;4905618;29;20230;-85
2021/07/07 03:45:52;;;;;;;41.87;37.47;;;19.00;99.90;;;;;;4910810;29;20294;-86
2021/07/07 03:48:20;;;;;;;39.30;35.20;;;19.00;99.90;;;;;;4908218;29;20230;-84
2021/07/07 03:50:49;;;;;;;38.77;34.97;;;19.10;99.90;;;;;;4912728;29;20595;-85
2021/07/07 03:53:18;;;;;;;39.13;35.20;;;19.20;99.90;;;;;;4917646;29;20286;-85
2021/07/07 03:55:49;;;;;;;37.87;34.07;;;19.20;99.90;;;;;;4910336;29;20225;-87
2021/07/07 03:58:17;;;;;;;40.23;34.17;;;19.40;99.90;;;;;;4915297;29;20223;-85
2021/07/07 04:00:48;;;;;;;39.30;35.20;;;19.50;99.90;;;;;;4908662;29;20209;-85
2021/07/07 04:03:17;;;;;;;37.63;33.77;;;19.60;99.90;;;;;;4916935;29;20214;-84
2021/07/07 04:05:45;;;;;;;37.57;33.77;;;19.70;99.90;;;;;;4911219;29;20258;-85
2021/07/07 04:08:14;;;;;;;38.70;34.67;;;19.80;99.90;;;;;;4907911;29;20235;-86
2021/07/07 04:10:43;;;;;;;36.53;32.77;;;19.90;99.90;;;;;;4911932;29;20187;-83
2021/07/07 04:13:11;;;;;;;37.63;33.83;;;20.00;99.90;;;;;;4912088;29;20242;-84
2021/07/07 04:15:41;;;;;;;38.77;34.93;;;20.10;99.90;;;;;;4916786;29;20230;-85
2021/07/07 04:18:12;;;;;;;40.10;36.07;;;20.20;99.90;;;;;;4913196;29;20211;-86
2021/07/07 04:20:41;;;;;;;39.13;35.23;;;20.30;99.90;;;;;;4913245;29;20658;-85
2021/07/07 04:23:11;;;;;;;41.33;36.93;;;20.40;99.90;;;;;;4911752;29;20441;-86
2021/07/07 04:25:40;;;;;;;40.63;36.50;;;20.50;99.90;;;;;;4927926;28;20198;-84
2021/07/07 04:28:10;;;;;;;40.93;36.80;;;20.60;99.90;;;;;;4927322;28;20306;-84
2021/07/07 04:30:41;;;;;;;39.37;35.17;;;20.70;99.90;;;;;;4930675;29;20198;-84
2021/07/07 04:33:11;;;;;;;36.90;33.30;;;20.80;99.90;;;;;;4928375;28;20210;-83
2021/07/07 04:35:40;;;;;;;39.00;34.90;;;20.90;99.90;;;;;;4931448;28;20187;-85
2021/07/07 04:38:09;;;;;;;38.23;34.20;;;21.00;99.70;;;;;;4926926;28;20199;-87
2021/07/07 04:40:38;;;;;;;38.13;34.50;;;21.20;99.40;;;;;;4927433;28;20278;-84
2021/07/07 04:43:07;;;;;;;37.73;33.87;;;21.40;99.60;;;;;;4924362;28;21133;-82
2021/07/07 04:45:36;;;;;;;37.83;34.20;;;21.50;98.40;;;;;;4912664;29;20218;-84
2021/07/07 04:48:05;;;;;;;32.40;29.33;;;21.70;97.30;;;;;;4903044;29;20249;-84
2021/07/07 04:50:36;;;;;;;31.77;28.50;;;21.80;96.40;;;;;;4905006;29;20218;-86
2021/07/07 04:53:05;;;;;;;33.03;29.00;;;22.00;95.20;;;;;;4908739;29;20206;-86
2021/07/07 04:55:33;;;;;;;29.70;26.80;;;22.20;94.60;;;;;;4906435;29;20680;-86
2021/07/07 04:58:02;;;;;;;30.83;27.58;;;22.40;93.80;;;;;;4913095;29;20234;-85
2021/07/07 05:00:32;;;;;;;30.80;27.55;;;22.50;92.80;;;;;;4914466;29;20210;-88
2021/07/07 05:03:01;;;;;;;30.25;27.35;;;22.60;92.70;;;;;;4926403;28;20250;-87
2021/07/07 05:05:29;;;;;;;29.05;26.42;;;22.60;92.30;;;;;;4930080;28;20183;-86
2021/07/07 05:08:07;;;;;;;30.30;27.48;;;22.60;92.70;;;;;;4921522;28;20210;-86
2021/07/07 05:10:41;;;;;;;28.17;25.38;;;22.80;92.60;;;;;;4914656;29;20203;-83
2021/07/07 05:13:10;;;;;;;30.17;27.17;;;23.00;92.20;;;;;;4905368;29;20210;-85
2021/07/07 05:15:40;;;;;;;29.00;26.20;;;23.20;91.70;;;;;;4907574;29;20214;-84
2021/07/07 05:18:10;;;;;;;27.83;25.25;;;23.30;91.20;;;;;;4903706;29;21221;-86
2021/07/07 05:20:39;;;;;;;29.13;26.33;;;23.40;91.40;;;;;;4905059;29;20557;-86
2021/07/07 05:23:10;;;;;;;27.45;24.65;;;23.50;91.20;;;;;;4899794;29;20298;-84
2021/07/07 05:25:40;;;;;;;26.60;24.00;;;23.60;91.10;;;;;;4908941;29;20211;-86
2021/07/07 05:28:12;;;;;;;26.10;23.50;;;23.70;90.70;;;;;;4908831;29;20230;-84
2021/07/07 05:30:42;;;;;;;26.08;23.55;;;23.80;90.30;;;;;;4911119;29;20214;-83
2021/07/07 05:33:11;;;;;;;25.55;23.17;;;23.90;90.40;;;;;;4905097;29;20222;-84
2021/07/07 05:35:40;;;;;;;27.08;24.38;;;24.00;89.70;;;;;;4911039;29;20206;-85
2021/07/07 05:38:10;;;;;;;25.88;23.30;;;24.10;88.80;;;;;;4909179;29;20616;-85
2021/07/07 05:40:39;;;;;;;25.23;22.77;;;24.20;87.90;;;;;;4912741;29;20221;-85
2021/07/07 05:43:08;;;;;;;26.73;23.90;;;24.30;87.70;;;;;;4908830;29;20372;-82
2021/07/07 05:45:37;;;;;;;27.35;24.70;;;24.40;87.50;;;;;;4917354;29;20458;-84
2021/07/07 05:48:08;;;;;;;25.60;23.10;;;24.50;87.80;;;;;;4907352;29;20383;-83
2021/07/07 05:50:37;;;;;;;25.58;22.98;;;24.60;87.30;;;;;;4909109;29;20322;-83
2021/07/07 05:53:07;;;;;;;26.73;24.13;;;24.80;87.50;;;;;;4910298;29;20646;-87
2021/07/07 05:55:39;;;;;;;26.65;24.20;;;24.90;87.20;;;;;;4903983;29;20737;-85
2021/07/07 05:58:09;;;;;;;27.52;24.92;;;24.80;87.10;;;;;;4907025;29;20203;-85
2021/07/07 06:00:38;;;;;;;24.88;22.42;;;24.90;87.60;;;;;;4906812;29;20807;-84
2021/07/07 06:03:07;;;;;;;24.13;21.92;;;25.00;87.50;;;;;;4905144;28;20219;-82
2021/07/07 06:05:35;;;;;;;25.50;22.98;;;25.20;87.10;;;;;;4902124;29;20207;-84
2021/07/07 06:08:05;;;;;;;24.60;22.23;;;25.20;86.90;;;;;;4904336;29;20649;-83
2021/07/07 06:10:34;;;;;;;22.45;20.05;;;25.40;86.80;;;;;;4903366;29;21866;-85
2021/07/07 06:13:05;;;;;;;23.25;21.05;;;25.50;86.70;;;;;;4904107;29;20195;-83
2021/07/07 06:15:36;;;;;;;21.63;19.60;;;25.60;86.50;;;;;;4907061;29;20217;-84
2021/07/07 06:18:05;;;;;;;21.48;19.48;;;25.70;86.50;;;;;;4906573;29;20202;-84
2021/07/07 06:20:35;;;;;;;21.45;19.38;;;25.80;86.40;;;;;;4898666;29;20214;-83
2021/07/07 06:23:04;;;;;;;20.13;18.20;;;25.90;86.10;;;;;;4902679;29;20645;-84
2021/07/07 06:25:33;;;;;;;19.73;17.88;;;26.10;85.80;;;;;;4895428;29;20214;-83
2021/07/07 06:28:04;;;;;;;18.67;16.98;;;26.20;85.00;;;;;;4899993;29;20282;-85
2021/07/07 06:30:33;;;;;;;18.58;16.88;;;26.20;84.90;;;;;;4896372;29;20214;-85
2021/07/07 06:33:04;;;;;;;18.42;16.83;;;26.30;84.80;;;;;;4896320;29;20834;-85
2021/07/07 06:35:36;;;;;;;19.60;17.73;;;26.40;85.00;;;;;;4892968;29;20999;-84
2021/07/07 06:38:06;;;;;;;19.40;17.70;;;26.40;85.50;;;;;;4897010;29;20227;-82
2021/07/07 06:40:35;;;;;;;19.48;17.77;;;26.50;85.80;;;;;;4892792;29;20352;-83
2021/07/07 06:43:05;;;;;;;18.50;16.77;;;26.60;85.60;;;;;;4893345;29;20207;-84
2021/07/07 06:45:37;;;;;;;18.83;17.13;;;26.70;85.40;;;;;;4903301;29;20212;-84
2021/07/07 06:48:07;;;;;;;18.92;17.02;;;26.80;85.50;;;;;;4906499;28;20211;-82
2021/07/07 06:50:36;;;;;;;17.67;16.08;;;27.00;85.60;;;;;;4913516;28;20421;-82
2021/07/07 06:53:05;;;;;;;18.15;16.35;;;27.20;85.40;;;;;;4911009;28;20266;-83
2021/07/07 06:55:34;;;;;;;16.60;15.13;;;27.30;84.70;;;;;;4895043;29;20202;-82
2021/07/07 06:58:06;;;;;;;17.02;15.60;;;27.30;84.50;;;;;;4901135;29;20207;-83
2021/07/07 07:00:34;;;;;;;16.33;14.93;;;27.30;84.20;;;;;;4915823;29;20828;-84
2021/07/07 07:03:03;;;;;;;17.30;15.77;;;27.30;84.30;;;;;;4919317;29;20231;-83
2021/07/07 07:05:33;;;;;;;18.08;16.35;;;27.40;84.20;;;;;;4910878;29;20749;-83
2021/07/07 07:08:02;;;;;;;16.50;15.00;;;27.40;84.00;;;;;;4896064;29;20211;-83
2021/07/07 07:10:30;;;;;;;16.08;14.50;;;27.50;84.30;;;;;;4916493;29;20298;-85
2021/07/07 07:12:59;;;;;;;15.30;14.00;;;27.60;83.50;;;;;;4917987;28;20202;-83
2021/07/07 07:15:29;;;;;;;16.58;15.07;;;27.70;83.70;;;;;;4901155;29;21029;-82
2021/07/07 07:17:57;;;;;;;15.43;13.85;;;27.80;83.20;;;;;;4894210;29;20306;-83
2021/07/07 07:20:29;;;;;;;15.43;14.15;;;27.90;83.00;;;;;;4901766;29;20211;-82
2021/07/07 07:22:58;;;;;;;15.63;14.05;;;28.00;82.90;;;;;;4894705;29;20226;-82
2021/07/07 07:25:27;;;;;;;14.95;13.65;;;28.10;82.80;;;;;;4900535;29;20778;-82
2021/07/07 07:27:56;;;;;;;14.93;13.73;;;28.20;82.50;;;;;;4884778;29;20211;-84
2021/07/07 07:30:26;;;;;;;15.60;14.23;;;28.20;82.50;;;;;;4893582;29;20457;-81
2021/07/07 07:32:56;;;;;;;15.13;13.82;;;28.20;82.60;;;;;;4887109;29;20217;-83
2021/07/07 07:35:25;;;;;;;13.90;12.52;;;28.40;82.80;;;;;;4897140;29;20210;-84
2021/07/07 07:38:01;;;;;;;13.70;12.50;;;28.50;82.40;;;;;;4893746;29;20206;-84
2021/07/07 07:40:37;;;;;;;14.65;13.32;;;28.60;81.00;;;;;;4918930;29;20199;-82
2021/07/07 07:43:07;;;;;;;13.43;12.32;;;28.60;80.90;;;;;;4922190;28;20405;-82
2021/07/07 07:45:36;;;;;;;13.88;12.73;;;28.60;81.10;;;;;;4919502;28;20199;-82
2021/07/07 07:48:07;;;;;;;13.80;12.65;;;28.70;81.30;;;;;;4894798;29;20197;-84
2021/07/07 07:50:36;;;;;;;13.57;12.38;;;28.80;81.30;;;;;;4901155;29;20234;-84
2021/07/07 07:53:05;;;;;;;14.23;13.00;;;28.90;81.00;;;;;;4894236;29;20770;-81
2021/07/07 07:55:33;;;;;;;13.25;12.18;;;28.90;81.20;;;;;;4897744;29;20202;-82
2021/07/07 07:58:03;;;;;;;13.55;12.45;;;29.00;80.70;;;;;;4892429;29;20210;-82
2021/07/07 08:00:32;;;;;;;13.57;12.35;;;29.00;80.90;;;;;;4886205;29;20203;-82
2021/07/07 08:03:00;;;;;;;13.18;12.07;;;29.10;81.10;;;;;;4887685;29;20210;-83
2021/07/07 08:05:31;;;;;;;13.38;12.27;;;29.10;81.10;;;;;;4892772;29;20227;-82
2021/07/07 08:08:01;;;;;;;13.20;12.10;;;29.20;80.50;;;;;;4889861;29;20217;-83
2021/07/07 08:10:31;;;;;;;13.05;11.85;;;29.20;80.20;;;;;;4884920;29;20295;-83
2021/07/07 08:13:00;;;;;;;13.95;12.70;;;29.20;79.90;;;;;;4906500;29;20294;-86
2021/07/07 08:15:29;;;;;;;14.48;13.27;;;29.20;79.80;;;;;;4916846;28;20187;-85
2021/07/07 08:17:59;;;;;;;13.45;12.20;;;29.20;80.30;;;;;;4899587;29;21022;-84
2021/07/07 08:20:28;;;;;;;14.40;13.25;;;29.30;80.40;;;;;;4892802;29;20186;-87
2021/07/07 08:22:58;;;;;;;13.88;12.68;;;29.40;80.30;;;;;;4909476;29;20664;-85
2021/07/07 08:25:27;;;;;;;14.25;12.95;;;29.60;80.40;;;;;;4904491;29;20430;-83
2021/07/07 08:27:56;;;;;;;13.63;12.32;;;29.60;80.20;;;;;;4914642;29;20207;-85
2021/07/07 08:30:25;;;;;;;13.88;12.75;;;29.60;79.40;;;;;;4899020;29;20713;-85
2021/07/07 08:32:54;;;;;;;13.98;12.85;;;29.50;79.40;;;;;;4917244;29;20221;-82
2021/07/07 08:35:23;;;;;;;13.95;12.75;;;29.60;80.00;;;;;;4914163;29;20202;-83
2021/07/07 08:37:52;;;;;;;13.23;12.23;;;29.60;80.20;;;;;;4913852;29;20207;-83
2021/07/07 08:40:24;;;;;;;13.52;12.50;;;29.70;80.30;;;;;;4902081;29;20203;-85
2021/07/07 08:42:53;;;;;;;14.20;12.90;;;29.80;79.80;;;;;;4907618;29;20316;-85
2021/07/07 08:45:23;;;;;;;14.32;12.82;;;30.00;80.00;;;;;;4898619;29;20215;-84
2021/07/07 08:47:53;;;;;;;12.90;11.88;;;30.10;78.50;;;;;;4903117;29;20206;-82
2021/07/07 08:50:24;;;;;;;12.65;11.60;;;30.00;78.10;;;;;;4898444;29;20376;-84
2021/07/07 08:52:55;;;;;;;14.07;12.68;;;30.10;78.30;;;;;;4899089;29;20625;-84
2021/07/07 08:55:26;;;;;;;13.00;11.90;;;30.10;78.40;;;;;;4897818;29;20210;-86
2021/07/07 08:58:00;;;;;;;12.75;11.80;;;30.10;78.60;;;;;;4900579;29;20225;-84
2021/07/07 09:00:33;;;;;;;13.85;12.63;;;30.10;78.50;;;;;;4899912;29;20588;-83
2021/07/07 09:03:10;;;;;;;13.18;11.95;;;30.10;79.10;;;;;;4902318;29;20359;-82
2021/07/07 09:05:58;;;;;;;13.18;11.85;;;30.40;78.10;;;;;;4897774;29;20223;-87
2021/07/07 09:08:30;;;;;;;12.48;11.45;;;30.40;76.70;;;;;;4893464;29;20212;-84
2021/07/07 09:11:16;;;;;;;12.55;11.45;;;30.40;77.60;;;;;;4901541;29;20238;-85
2021/07/07 09:13:46;;;;;;;13.10;12.10;;;30.40;77.10;;;;;;4899309;29;20351;-83
2021/07/07 09:16:17;;;;;;;12.45;10.52;;;30.50;76.60;;;;;;4904758;29;20838;-85
2021/07/07 09:18:48;;;;;;;12.13;11.02;;;30.50;76.30;;;;;;4897231;29;20210;-85
2021/07/07 09:21:26;;;;;;;11.70;10.80;;;30.60;75.70;;;;;;4904821;29;20194;-85
2021/07/07 09:23:58;;;;;;;11.23;10.23;;;30.70;75.40;;;;;;4918708;28;20198;-85
2021/07/07 09:26:30;;;;;;;11.35;10.45;;;30.70;75.10;;;;;;4902075;29;20214;-84
2021/07/07 09:29:00;;;;;;;9.93;9.13;;;30.70;74.60;;;;;;4890537;29;20603;-85
2021/07/07 09:31:37;;;;;;;10.63;9.82;;;30.70;73.80;;;;;;4900001;29;20230;-84
2021/07/07 09:34:22;;;;;;;11.07;9.98;;;30.50;73.70;;;;;;4889186;29;20216;-83
2021/07/07 09:36:52;;;;;;;11.50;10.60;;;30.40;74.10;;;;;;4897462;29;20211;-83
2021/07/07 09:39:22;;;;;;;10.57;9.60;;;30.40;74.70;;;;;;4899103;29;20243;-84
2021/07/07 09:41:54;;;;;;;10.48;9.57;;;30.40;73.00;;;;;;4920872;28;20210;-84
2021/07/07 09:44:23;;;;;;;10.30;9.40;;;30.50;72.50;;;;;;4919084;29;20199;-84
2021/07/07 09:46:52;;;;;;;10.70;9.65;;;30.60;72.60;;;;;;4917145;28;20198;-83
2021/07/07 09:49:21;;;;;;;11.35;10.32;;;30.60;72.90;;;;;;4921906;28;20549;-82
2021/07/07 09:51:50;;;;;;;11.20;10.35;;;30.60;72.50;;;;;;4899301;28;21094;-84
2021/07/07 09:54:21;;;;;;;10.23;9.23;;;30.60;72.80;;;;;;4892752;29;20206;-82
2021/07/07 09:56:52;;;;;;;9.63;8.82;;;30.70;72.40;;;;;;4896476;29;20229;-83
2021/07/07 09:59:20;;;;;;;10.40;9.57;;;30.80;71.80;;;;;;4895806;29;20212;-85
2021/07/07 10:01:49;;;;;;;11.13;10.23;;;30.70;72.50;;;;;;4904760;29;20221;-84
2021/07/07 10:04:18;;;;;;;11.15;10.25;;;30.60;72.60;;;;;;4889990;29;20325;-83
2021/07/07 10:06:47;;;;;;;11.90;10.80;;;30.60;74.10;;;;;;4907618;29;20330;-82
2021/07/07 10:09:16;;;;;;;10.57;9.73;;;30.60;73.40;;;;;;4905562;29;20214;-82
2021/07/07 10:11:45;;;;;;;10.00;9.20;;;30.70;72.60;;;;;;4922964;28;20222;-84
2021/07/07 10:14:15;;;;;;;10.82;9.68;;;30.60;71.40;;;;;;4914115;28;20210;-85
2021/07/07 10:16:44;;;;;;;11.10;10.20;;;30.50;71.80;;;;;;4913222;28;20211;-84
2021/07/07 10:19:15;;;;;;;11.48;10.57;;;30.40;72.80;;;;;;4916726;28;20363;-82
2021/07/07 10:21:43;;;;;;;10.77;9.77;;;30.50;73.10;;;;;;4922007;28;20935;-83
2021/07/07 10:24:13;;;;;;;10.77;9.77;;;30.50;72.20;;;;;;4912211;28;20397;-83
2021/07/07 10:26:43;;;;;;;11.10;10.15;;;30.60;72.40;;;;;;4901460;29;20210;-84
2021/07/07 10:29:13;;;;;;;11.50;10.55;;;30.60;72.10;;;;;;4893870;29;20210;-83
2021/07/07 10:31:48;;;;;;;11.82;10.82;;;30.40;72.50;;;;;;4891229;29;20500;-83
2021/07/07 10:34:17;;;;;;;11.05;10.05;;;30.30;73.10;;;;;;4888645;29;20213;-82
2021/07/07 10:36:46;;;;;;;11.57;10.68;;;30.30;73.40;;;;;;4895599;29;20238;-84
2021/07/07 10:39:17;;;;;;;11.60;10.60;;;30.40;73.30;;;;;;4884427;29;20218;-83
2021/07/07 10:42:01;;;;;;;11.70;10.57;;;30.40;73.30;;;;;;4904844;29;20214;-83
2021/07/07 10:44:53;;;;;;;10.52;9.55;;;30.50;73.40;;;;;;4892088;29;20607;-84
2021/07/07 10:47:38;;;;;;;10.80;9.90;;;30.30;72.40;;;;;;4886695;29;20564;-83
2021/07/07 10:50:08;;;;;;;12.23;11.25;;;30.30;72.50;;;;;;4887317;29;20670;-82
2021/07/07 10:52:44;;;;;;;11.07;10.18;;;30.30;72.90;;;;;;4904190;28;20207;-83
2021/07/07 10:55:16;;;;;;;11.73;10.57;;;30.40;73.80;;;;;;4908960;28;20216;-84
2021/07/07 10:57:47;;;;;;;11.25;10.25;;;30.20;73.20;;;;;;4910669;28;20215;-82
2021/07/07 11:00:31;;;;;;;11.40;10.60;;;30.10;73.00;;;;;;4907024;28;20204;-82
2021/07/07 11:03:35;;;;;;;11.68;10.57;;;30.10;73.20;;;;;;4914061;28;20204;-83
2021/07/07 11:06:26;;;;;;;10.63;9.80;;;30.20;73.30;;;;;;4922876;28;20437;-85
2021/07/07 11:09:11;;;;;;;10.80;10.00;;;30.30;72.60;;;;;;4917892;28;20279;-83
2021/07/07 11:11:42;;;;;;;11.15;10.27;;;30.30;73.10;;;;;;4911018;29;20626;-84
2021/07/07 11:14:16;;;;;;;11.13;10.23;;;30.40;73.30;;;;;;4910681;29;20210;-84
2021/07/07 11:16:46;;;;;;;10.77;9.88;;;30.50;72.40;;;;;;4888713;29;20462;-83
2021/07/07 11:19:49;;;;;;;11.18;10.18;;;30.50;73.10;;;;;;4878834;29;20214;-86
2021/07/07 11:22:19;;;;;;;11.05;10.10;;;30.50;73.70;;;;;;4891189;29;20205;-86
2021/07/07 11:24:51;;;;;;;10.50;9.68;;;30.50;73.70;;;;;;4891560;29;20794;-83
2021/07/07 11:27:20;;;;;;;11.27;10.18;;;30.50;73.30;;;;;;4882940;29;20317;-82
2021/07/07 11:29:49;;;;;;;10.85;9.85;;;30.50;72.20;;;;;;4882884;29;20207;-83
2021/07/07 11:32:40;;;;;;;10.65;9.75;;;30.40;72.70;;;;;;4888306;29;20269;-83
2021/07/07 11:35:13;;;;;;;11.07;10.07;;;30.20;73.10;;;;;;4887212;29;20225;-85
2021/07/07 11:37:43;;;;;;;11.50;10.60;;;30.10;73.70;;;;;;4888956;29;20350;-82
2021/07/07 11:40:15;;;;;;;11.00;10.20;;;30.20;73.60;;;;;;4885368;29;20206;-81
2021/07/07 11:43:03;;;;;;;11.65;10.50;;;30.20;72.80;;;;;;4889087;29;21103;-83
2021/07/07 11:45:35;;;;;;;12.05;11.00;;;30.20;72.90;;;;;;4896245;29;20938;-84
2021/07/07 11:48:12;;;;;;;11.75;10.70;;;30.20;73.20;;;;;;4903650;29;20215;-84
2021/07/07 11:50:45;;;;;;;11.10;10.25;;;30.50;73.00;;;;;;4904600;29;20684;-82
2021/07/07 11:53:15;;;;;;;11.88;10.98;;;30.70;73.10;;;;;;4910566;29;20202;-83
2021/07/07 11:55:56;;;;;;;11.45;10.55;;;30.70;72.50;;;;;;4903137;28;20243;-85
2021/07/07 11:58:28;;;;;;;11.13;10.13;;;30.80;73.10;;;;;;4895222;29;20596;-85
2021/07/07 12:00:59;;;;;;;11.48;10.32;;;31.00;72.50;;;;;;4900294;29;20217;-82
2021/07/07 12:03:28;;;;;;;11.45;10.55;;;31.00;72.90;;;;;;4907930;29;20558;-86
2021/07/07 12:06:03;;;;;;;11.07;10.18;;;30.90;71.90;;;;;;4898761;29;20237;-83
2021/07/07 12:08:34;;;;;;;11.38;10.35;;;30.80;72.20;;;;;;4901180;29;20499;-84
2021/07/07 12:11:09;;;;;;;11.73;10.60;;;30.70;72.80;;;;;;4902498;29;20838;-83
2021/07/07 12:13:40;;;;;;;11.82;10.82;;;30.60;72.80;;;;;;4901923;29;20209;-84
2021/07/07 12:16:21;;;;;;;11.57;10.57;;;30.40;72.90;;;;;;4896136;29;20568;-84
2021/07/07 12:18:51;;;;;;;11.27;10.40;;;30.40;72.50;;;;;;4889956;29;21170;-82
2021/07/07 12:21:36;;;;;;;12.77;11.60;;;30.50;72.70;;;;;;4890299;29;20301;-84
2021/07/07 12:24:07;;;;;;;11.48;10.55;;;30.50;73.20;;;;;;4892987;29;20258;-81
2021/07/07 12:26:38;;;;;;;11.50;10.48;;;30.50;73.20;;;;;;4888952;29;20355;-84
2021/07/07 12:29:10;;;;;;;11.80;10.63;;;30.60;73.40;;;;;;4890890;29;20277;-83
2021/07/07 12:31:41;;;;;;;11.75;10.65;;;30.50;72.90;;;;;;4880168;29;20242;-83
2021/07/07 12:34:11;;;;;;;11.10;10.30;;;30.70;72.80;;;;;;4901697;29;20210;-84
2021/07/07 12:36:44;;;;;;;12.55;11.13;;;30.90;72.80;;;;;;4889869;29;20221;-84
2021/07/07 12:39:19;;;;;;;11.80;10.80;;;31.30;72.00;;;;;;4884746;29;20203;-84
2021/07/07 12:41:50;;;;;;;11.07;10.18;;;31.40;73.10;;;;;;4881103;29;20213;-83
2021/07/07 12:44:31;;;;;;;10.77;9.88;;;31.40;71.00;;;;;;4891504;29;20914;-82
2021/07/07 12:47:02;;;;;;;11.05;10.25;;;31.50;71.50;;;;;;4884658;29;21578;-83